Time;durP1;ratioP1;P1;durP2;ratioP2;P2;SDS_P1;SDS_P2;PMS_P1;PMS_P2;Temp;Humidity;BMP_temperature;BMP_pressure;BME280_temperature;BME280_humidity;BME280_pressure;Samples;Min_cycle;Max_cycle;Signal;HPM_P1;HPM_P2
2021/04/03 04:51:10;;;;;;;15.30;4.57;;;4.50;99.90;;;;;;5640784;23;20497;-64
2021/04/03 04:53:38;;;;;;;10.88;4.53;;;4.60;99.90;;;;;;4984559;28;20050;-64
2021/04/03 04:56:06;;;;;;;16.08;5.13;;;4.60;99.90;;;;;;4992773;28;20505;-64
2021/04/03 04:58:37;;;;;;;11.70;4.90;;;4.60;99.90;;;;;;4992685;28;20119;-64
2021/04/03 05:01:03;;;;;;;8.93;4.22;;;4.60;99.90;;;;;;5003635;28;20034;-63
2021/04/03 05:03:40;;;;;;;21.10;5.57;;;4.60;99.90;;;;;;4973385;28;20137;-63
2021/04/03 05:06:06;;;;;;;;;;;4.60;99.90;;;;;;4991570;28;20077;-63
2021/04/03 05:08:34;;;;;;;12.82;4.10;;;4.60;99.90;;;;;;4973679;28;19929;-64
2021/04/03 05:11:00;;;;;;;17.60;4.75;;;4.50;99.90;;;;;;4991094;28;20044;-63
2021/04/03 05:13:27;;;;;;;15.35;4.13;;;4.60;99.90;;;;;;4991237;28;20533;-64
2021/04/03 05:15:54;;;;;;;11.02;4.40;;;4.60;99.90;;;;;;4991076;28;20057;-64
2021/04/03 05:18:21;;;;;;;9.15;4.00;;;4.70;99.90;;;;;;4991613;28;20401;-64
2021/04/03 05:20:48;;;;;;;12.90;4.35;;;4.70;99.90;;;;;;4991277;28;20089;-63
2021/04/03 05:23:17;;;;;;;10.75;4.28;;;4.70;99.90;;;;;;4982352;28;20079;-64
2021/04/03 05:25:44;;;;;;;13.23;4.60;;;4.90;99.90;;;;;;4982888;28;20046;-64
2021/04/03 05:28:13;;;;;;;10.50;4.15;;;4.80;99.90;;;;;;4990845;28;20116;-64
2021/04/03 05:30:39;;;;;;;13.77;4.82;;;4.70;99.90;;;;;;4991051;28;20034;-64
2021/04/03 05:33:06;;;;;;;9.73;4.30;;;4.60;99.90;;;;;;4973631;28;20121;-64
2021/04/03 05:35:32;;;;;;;;;;;4.70;99.90;;;;;;4990877;28;20121;-64
2021/04/03 05:38:02;;;;;;;12.68;4.63;;;4.70;99.90;;;;;;4983070;28;20125;-65
2021/04/03 05:40:29;;;;;;;16.35;4.55;;;4.70;99.90;;;;;;4963518;28;20450;-64
2021/04/03 05:42:58;;;;;;;12.77;4.88;;;4.70;99.90;;;;;;4988768;28;20505;-64
2021/04/03 05:45:27;;;;;;;12.15;4.43;;;4.80;99.90;;;;;;4991145;28;20038;-64
2021/04/03 05:47:55;;;;;;;14.23;5.13;;;4.80;99.90;;;;;;4991512;28;20050;-65
2021/04/03 05:50:21;;;;;;;21.48;8.77;;;4.70;99.90;;;;;;4973011;28;20480;-64
2021/04/03 05:52:50;;;;;;;19.95;6.80;;;4.70;99.90;;;;;;4973134;28;20046;-64
2021/04/03 05:55:17;;;;;;;31.30;15.60;;;4.60;99.90;;;;;;4990570;28;20068;-63
2021/04/03 05:57:44;;;;;;;20.15;9.27;;;4.70;99.90;;;;;;4990187;28;20046;-62
2021/04/03 06:00:13;;;;;;;22.13;8.02;;;5.10;99.90;;;;;;4990664;28;20074;-63
2021/04/03 06:02:41;;;;;;;16.48;5.38;;;5.70;99.90;;;;;;4990804;28;20050;-64
2021/04/03 06:05:09;;;;;;;12.82;5.88;;;6.50;99.90;;;;;;4990185;28;20065;-65
2021/04/03 06:07:35;;;;;;;22.25;8.45;;;6.60;99.90;;;;;;4990327;28;20046;-64
2021/04/03 06:10:05;;;;;;;15.18;8.23;;;7.00;99.90;;;;;;4990341;28;20038;-64
2021/04/03 06:12:42;;;;;;;14.55;5.20;;;7.70;99.90;;;;;;4990087;28;20042;-64
2021/04/03 06:15:15;;;;;;;13.68;6.88;;;7.70;99.90;;;;;;4990320;28;20506;-65
2021/04/03 06:17:44;;;;;;;8.93;4.10;;;8.20;99.90;;;;;;4977137;28;20042;-64
2021/04/03 06:20:11;;;;;;;12.95;4.78;;;8.00;99.90;;;;;;4971009;28;20043;-69
2021/04/03 06:22:45;;;;;;;12.40;3.92;;;8.10;99.90;;;;;;4970952;28;20143;-64
2021/04/03 06:25:12;;;;;;;9.52;3.95;;;9.00;99.90;;;;;;4948674;28;20081;-64
2021/04/03 06:27:39;;;;;;;8.77;4.15;;;9.30;99.90;;;;;;4945970;28;20051;-66
2021/04/03 06:30:32;;;;;;;8.93;3.35;;;9.50;99.90;;;;;;4946478;28;20565;-63
2021/04/03 06:33:15;;;;;;;9.85;3.80;;;9.60;99.90;;;;;;4959311;28;20039;-64
2021/04/03 06:35:42;;;;;;;10.15;3.70;;;9.60;99.90;;;;;;4941328;28;20047;-64
2021/04/03 06:38:21;;;;;;;10.25;3.47;;;9.60;99.90;;;;;;4959810;28;20527;-63
2021/04/03 06:40:48;;;;;;;15.13;3.53;;;10.60;99.90;;;;;;4948069;28;20054;-63
2021/04/03 06:43:16;;;;;;;12.98;3.63;;;10.90;99.90;;;;;;4952867;28;20043;-64
2021/04/03 06:45:45;;;;;;;9.88;3.10;;;11.40;99.90;;;;;;4965775;28;20051;-65
2021/04/03 06:48:14;;;;;;;11.55;3.30;;;11.20;99.90;;;;;;4969503;28;20094;-64
2021/04/03 06:50:43;;;;;;;8.15;3.08;;;11.20;99.90;;;;;;4967166;28;20121;-64
2021/04/03 06:53:11;;;;;;;11.05;3.80;;;11.20;99.90;;;;;;4969857;28;20549;-64
2021/04/03 06:55:39;;;;;;;11.98;3.03;;;11.00;99.90;;;;;;4967546;28;20130;-64
2021/04/03 06:58:07;;;;;;;12.20;2.90;;;11.10;99.90;;;;;;4969372;28;20109;-65
2021/04/03 07:00:34;;;;;;;14.27;3.47;;;11.10;99.90;;;;;;4951675;28;20109;-65
2021/04/03 07:03:05;;;;;;;11.40;2.55;;;11.60;99.90;;;;;;4981816;28;20039;-65
2021/04/03 07:05:34;;;;;;;11.43;3.50;;;11.40;99.90;;;;;;4968071;28;20054;-65
2021/04/03 07:08:02;;;;;;;12.65;3.60;;;11.50;99.90;;;;;;4969053;28;20697;-65
2021/04/03 07:10:29;;;;;;;11.27;2.63;;;12.00;99.40;;;;;;4952393;28;20137;-65
2021/04/03 07:12:56;;;;;;;10.25;3.08;;;10.60;99.90;;;;;;4967711;28;20058;-65
2021/04/03 07:15:24;;;;;;;10.38;3.67;;;10.70;99.90;;;;;;4969273;28;20070;-65
2021/04/03 07:17:52;;;;;;;7.75;2.83;;;10.10;99.90;;;;;;4967799;28;20050;-63
2021/04/03 07:20:21;;;;;;;12.20;3.20;;;10.30;99.90;;;;;;4952557;28;20047;-66
2021/04/03 07:22:49;;;;;;;9.93;2.90;;;10.50;99.90;;;;;;4968393;28;20043;-64
2021/04/03 07:25:18;;;;;;;12.63;3.42;;;10.90;99.90;;;;;;4969913;28;20046;-66
2021/04/03 07:27:46;;;;;;;11.80;2.85;;;11.30;99.90;;;;;;4967054;28;20042;-66
2021/04/03 07:30:34;;;;;;;12.00;3.42;;;11.00;99.90;;;;;;4969493;28;20039;-65
2021/04/03 07:33:07;;;;;;;13.55;3.35;;;10.70;99.90;;;;;;4978866;28;20100;-64
2021/04/03 07:35:38;;;;;;;13.27;3.80;;;10.70;99.90;;;;;;4988245;28;20054;-64
2021/04/03 07:38:10;;;;;;;11.38;3.30;;;10.60;99.90;;;;;;4968988;28;20490;-64
2021/04/03 07:40:39;;;;;;;13.70;3.25;;;10.50;99.90;;;;;;4973014;28;20044;-66
2021/04/03 07:43:36;;;;;;;10.23;2.90;;;10.70;99.90;;;;;;4971216;28;20109;-64
2021/04/03 07:46:08;;;;;;;11.10;3.17;;;11.60;98.70;;;;;;4968223;28;20107;-64
2021/04/03 07:48:49;;;;;;;8.00;2.85;;;11.10;99.20;;;;;;4968988;28;20067;-66
2021/04/03 07:51:47;;;;;;;9.32;2.83;;;12.30;97.40;;;;;;4964216;28;20146;-67
2021/04/03 07:54:38;;;;;;;12.38;2.83;;;12.60;96.40;;;;;;4967421;28;20121;-67
2021/04/03 07:57:07;;;;;;;8.13;2.53;;;12.10;96.80;;;;;;4968429;28;20038;-67
2021/04/03 08:00:02;;;;;;;8.55;2.90;;;12.60;96.30;;;;;;4968821;28;20045;-68
2021/04/03 08:02:39;;;;;;;13.88;3.30;;;12.80;94.60;;;;;;4971289;28;20055;-65
2021/04/03 08:05:10;;;;;;;;;;;13.40;93.50;;;;;;4970452;28;20058;-69
2021/04/03 08:07:38;;;;;;;12.02;3.35;;;13.10;93.00;;;;;;4971825;28;19996;-68
2021/04/03 08:10:18;;;;;;;13.48;3.08;;;13.30;92.60;;;;;;4970038;28;20587;-66
2021/04/03 08:12:46;;;;;;;14.65;3.50;;;13.20;92.60;;;;;;4972573;28;20074;-69
2021/04/03 08:15:18;;;;;;;12.82;3.67;;;13.30;93.00;;;;;;4969924;28;20047;-67
2021/04/03 08:17:51;;;;;;;11.23;3.45;;;12.40;93.20;;;;;;4971998;28;20046;-67
2021/04/03 08:20:19;;;;;;;14.00;3.45;;;12.80;93.70;;;;;;4962293;28;20073;-66
2021/04/03 08:23:00;;;;;;;14.00;3.65;;;13.40;92.30;;;;;;4966892;28;20046;-65
2021/04/03 08:25:26;;;;;;;13.35;3.53;;;12.70;93.10;;;;;;4964885;28;20043;-65
2021/04/03 08:27:53;;;;;;;12.57;3.60;;;13.40;92.50;;;;;;4964920;28;20081;-64
2021/04/03 08:30:29;;;;;;;16.10;3.70;;;13.20;92.10;;;;;;4963070;28;20066;-63
2021/04/03 08:33:14;;;;;;;12.48;3.50;;;13.80;91.70;;;;;;4965781;28;20046;-65
2021/04/03 08:35:42;;;;;;;9.65;3.28;;;14.20;90.90;;;;;;4963004;28;20094;-63
2021/04/03 08:38:22;;;;;;;13.30;3.58;;;14.40;90.70;;;;;;4963284;28;20039;-64
2021/04/03 08:40:52;;;;;;;13.90;3.83;;;14.10;90.10;;;;;;4958793;28;20505;-63
2021/04/03 08:43:27;;;;;;;14.77;3.92;;;14.10;89.20;;;;;;4968011;28;20042;-63
2021/04/03 08:46:01;;;;;;;13.95;3.83;;;13.80;90.60;;;;;;4963998;28;20070;-62
2021/04/03 08:48:33;;;;;;;14.70;3.97;;;14.00;91.00;;;;;;4964056;28;20050;-64
2021/04/03 08:51:00;;;;;;;12.18;3.92;;;13.90;90.80;;;;;;4963243;28;20035;-63
2021/04/03 08:53:36;;;;;;;11.02;4.05;;;14.60;89.00;;;;;;4965006;28;20047;-63
2021/04/03 08:56:03;;;;;;;10.07;3.83;;;14.40;89.20;;;;;;4960449;28;20035;-64
2021/04/03 08:58:30;;;;;;;12.23;4.32;;;14.70;89.00;;;;;;4964270;28;20865;-64
2021/04/03 09:00:57;;;;;;;17.33;4.57;;;14.00;90.10;;;;;;4963093;28;20093;-64
2021/04/03 09:03:24;;;;;;;14.38;4.07;;;13.50;91.00;;;;;;4967794;28;20050;-64
2021/04/03 09:05:50;;;;;;;13.00;4.03;;;13.60;90.50;;;;;;4946463;28;20286;-63
2021/04/03 09:08:43;;;;;;;13.23;4.28;;;13.50;90.00;;;;;;4962001;28;20039;-69
2021/04/03 09:11:09;;;;;;;12.80;3.78;;;13.70;89.90;;;;;;4948717;28;20065;-66
2021/04/03 09:13:37;;;;;;;11.75;3.70;;;14.20;90.00;;;;;;4970055;28;20125;-65
2021/04/03 09:16:08;;;;;;;13.23;4.07;;;14.10;88.10;;;;;;4949166;28;20134;-65
2021/04/03 09:18:35;;;;;;;15.02;4.85;;;14.20;89.20;;;;;;4955496;28;20069;-65
2021/04/03 09:21:02;;;;;;;17.25;4.47;;;14.90;87.50;;;;;;4952270;28;20050;-65
2021/04/03 09:23:28;;;;;;;;;;;14.10;89.10;;;;;;4948888;28;20050;-63
2021/04/03 09:26:00;;;;;;;15.23;4.38;;;14.50;87.90;;;;;;4952130;28;19957;-65
2021/04/03 09:28:36;;;;;;;14.25;4.72;;;14.30;89.40;;;;;;4967776;28;20046;-64
2021/04/03 09:31:04;;;;;;;16.15;4.70;;;14.50;87.70;;;;;;4971354;28;20629;-74
2021/04/03 09:33:30;;;;;;;13.25;4.40;;;13.60;90.50;;;;;;4966131;28;20047;-68
2021/04/03 09:36:09;;;;;;;15.55;3.97;;;14.90;87.50;;;;;;4969273;28;20057;-66
2021/04/03 09:38:37;;;;;;;12.70;4.13;;;15.10;86.90;;;;;;4967719;28;20058;-65
2021/04/03 09:41:23;;;;;;;13.57;3.72;;;13.50;88.30;;;;;;4965209;28;20109;-65
2021/04/03 09:43:50;;;;;;;11.35;3.47;;;14.10;89.80;;;;;;4955702;28;20062;-66
2021/04/03 09:46:16;;;;;;;;;;;14.90;86.20;;;;;;4968936;28;20057;-66
2021/04/03 09:48:43;;;;;;;10.23;3.63;;;14.90;85.20;;;;;;4968832;28;19929;-66
2021/04/03 09:51:10;;;;;;;12.70;4.38;;;14.10;87.90;;;;;;4962084;28;20452;-64
2021/04/03 09:53:38;;;;;;;13.20;3.92;;;13.70;89.00;;;;;;4955947;28;20035;-66
2021/04/03 09:56:06;;;;;;;12.80;3.35;;;13.50;89.70;;;;;;4955765;28;20047;-65
2021/04/03 09:58:33;;;;;;;11.63;3.80;;;14.00;87.90;;;;;;4953570;28;20118;-66
2021/04/03 10:01:00;;;;;;;;;;;13.60;89.10;;;;;;4964650;28;20160;-65
2021/04/03 10:03:26;;;;;;;10.90;3.50;;;14.00;88.80;;;;;;4952002;28;20048;-66
2021/04/03 10:05:53;;;;;;;10.80;4.05;;;14.40;86.90;;;;;;4955719;28;20091;-66
2021/04/03 10:08:19;;;;;;;16.27;3.95;;;14.60;86.10;;;;;;4953490;28;20035;-66
2021/04/03 10:10:46;;;;;;;10.90;3.47;;;15.10;84.90;;;;;;4960675;28;20114;-65
2021/04/03 10:13:13;;;;;;;10.85;4.03;;;13.40;86.40;;;;;;4961355;28;20038;-65
2021/04/03 10:15:41;;;;;;;11.02;3.75;;;14.50;85.30;;;;;;4952894;28;20055;-66
2021/04/03 10:18:08;;;;;;;14.70;4.15;;;14.90;84.20;;;;;;4957068;28;20039;-66
2021/04/03 10:20:34;;;;;;;;;;;15.20;84.70;;;;;;4961011;28;20039;-66
2021/04/03 10:23:01;;;;;;;11.02;3.22;;;14.90;84.10;;;;;;4958114;28;19926;-64
2021/04/03 10:25:27;;;;;;;10.05;3.42;;;14.80;83.30;;;;;;4951731;28;20463;-65
2021/04/03 10:27:54;;;;;;;7.47;2.80;;;13.90;83.00;;;;;;4960586;28;20051;-65
2021/04/03 10:30:22;;;;;;;14.25;3.67;;;12.80;86.70;;;;;;4959061;28;20780;-65
2021/04/03 10:32:49;;;;;;;7.63;3.05;;;13.60;87.00;;;;;;4956846;28;20517;-65
2021/04/03 10:35:15;;;;;;;6.97;2.83;;;13.90;85.50;;;;;;4958151;28;20063;-65
2021/04/03 10:37:42;;;;;;;11.95;3.03;;;14.00;84.20;;;;;;4955023;28;20040;-65
2021/04/03 10:40:09;;;;;;;16.58;3.05;;;14.20;85.00;;;;;;4961375;28;20039;-66
2021/04/03 10:42:36;;;;;;;10.88;3.40;;;14.30;82.10;;;;;;4954055;28;20102;-66
2021/04/03 10:45:02;;;;;;;11.40;2.97;;;13.70;85.40;;;;;;4953049;28;20586;-66
2021/04/03 10:47:30;;;;;;;;;;;13.80;85.30;;;;;;4962173;28;20051;-66
2021/04/03 10:49:56;;;;;;;10.93;3.83;;;13.30;87.40;;;;;;4954742;28;20102;-66
2021/04/03 10:52:23;;;;;;;6.32;2.60;;;13.90;81.80;;;;;;4956670;28;20287;-65
2021/04/03 10:54:49;;;;;;;8.50;2.60;;;14.10;83.70;;;;;;4960308;28;20040;-67
2021/04/03 10:57:17;;;;;;;8.55;2.70;;;14.70;81.00;;;;;;4961652;28;20517;-67
2021/04/03 10:59:43;;;;;;;6.45;2.55;;;14.70;79.10;;;;;;4954514;28;20042;-66
2021/04/03 11:02:10;;;;;;;7.10;2.33;;;14.00;80.10;;;;;;4955565;28;20043;-65
2021/04/03 11:04:37;;;;;;;5.45;2.67;;;15.30;80.40;;;;;;4960247;28;20050;-66
2021/04/03 11:07:04;;;;;;;7.05;2.40;;;15.30;76.60;;;;;;4958392;28;20046;-66
2021/04/03 11:09:31;;;;;;;7.55;2.65;;;14.10;80.10;;;;;;4962635;28;20053;-67
2021/04/03 11:11:57;;;;;;;12.85;2.60;;;14.20;79.60;;;;;;4960376;28;20042;-67
2021/04/03 11:14:24;;;;;;;8.65;2.03;;;13.90;78.10;;;;;;4958327;28;20050;-67
2021/04/03 11:16:50;;;;;;;5.03;2.08;;;14.50;77.30;;;;;;4958523;28;20043;-66
2021/04/03 11:19:16;;;;;;;7.57;2.38;;;14.30;76.20;;;;;;4965628;28;20043;-66
2021/04/03 11:21:44;;;;;;;6.68;2.35;;;15.10;77.00;;;;;;4958361;28;20489;-67
2021/04/03 11:24:10;;;;;;;5.63;2.25;;;15.00;74.70;;;;;;4957110;28;20256;-66
2021/04/03 11:26:37;;;;;;;6.05;2.65;;;15.30;74.80;;;;;;4961712;28;20511;-66
2021/04/03 11:29:03;;;;;;;4.90;2.08;;;14.80;76.50;;;;;;4948919;28;20047;-67
2021/04/03 11:31:30;;;;;;;9.70;2.55;;;14.30;76.40;;;;;;4963189;28;20502;-67
2021/04/03 11:33:57;;;;;;;5.38;2.30;;;14.00;77.40;;;;;;4963104;28;20648;-67
2021/04/03 11:36:24;;;;;;;10.80;2.30;;;15.40;76.80;;;;;;4959965;28;20521;-66
2021/04/03 11:38:51;;;;;;;7.00;2.30;;;15.80;72.20;;;;;;4965193;28;20039;-67
2021/04/03 11:41:18;;;;;;;4.55;1.90;;;14.70;75.00;;;;;;4963510;28;20078;-66
2021/04/03 11:43:44;;;;;;;4.55;2.13;;;13.90;75.30;;;;;;4963870;28;20049;-66
2021/04/03 11:46:11;;;;;;;7.20;2.03;;;14.00;76.00;;;;;;4964990;28;20138;-67
2021/04/03 11:48:37;;;;;;;6.53;2.30;;;14.60;76.20;;;;;;4962545;28;20038;-67
2021/04/03 11:51:04;;;;;;;5.15;2.00;;;15.10;73.70;;;;;;4963533;28;20045;-67
2021/04/03 11:53:31;;;;;;;3.75;1.33;;;14.50;72.10;;;;;;4966470;28;20129;-67
2021/04/03 11:55:58;;;;;;;5.57;1.60;;;14.50;71.50;;;;;;4963980;28;20053;-65
2021/04/03 11:58:25;;;;;;;5.07;1.77;;;15.70;71.20;;;;;;4964821;28;20054;-65
2021/04/03 12:00:52;;;;;;;2.22;1.40;;;14.80;71.10;;;;;;4961336;28;20533;-64
2021/04/03 12:03:18;;;;;;;4.15;1.60;;;15.00;69.30;;;;;;4947317;28;20055;-63
2021/04/03 12:05:45;;;;;;;3.47;1.63;;;14.10;70.10;;;;;;4962655;28;20473;-65
2021/04/03 12:08:11;;;;;;;6.18;1.92;;;13.80;71.20;;;;;;4959830;28;20407;-64
2021/04/03 12:10:38;;;;;;;5.20;2.10;;;13.20;73.70;;;;;;4960419;28;20514;-63
2021/04/03 12:13:05;;;;;;;4.32;1.63;;;12.80;77.30;;;;;;4964566;28;20042;-63
2021/04/03 12:15:32;;;;;;;3.15;1.42;;;14.20;75.10;;;;;;4962250;28;20050;-62
2021/04/03 12:17:58;;;;;;;5.68;1.80;;;15.40;71.20;;;;;;4965045;28;20042;-63
2021/04/03 12:20:25;;;;;;;5.90;2.20;;;15.60;74.00;;;;;;4962985;28;20078;-64
2021/04/03 12:22:52;;;;;;;4.65;2.00;;;15.00;72.50;;;;;;4966170;28;20039;-63
2021/04/03 12:25:18;;;;;;;6.72;2.10;;;13.80;76.50;;;;;;4963407;28;20046;-63
2021/04/03 12:27:45;;;;;;;7.40;2.22;;;13.40;76.10;;;;;;4968014;28;20061;-63
2021/04/03 12:30:13;;;;;;;6.22;2.13;;;12.60;77.40;;;;;;4968004;28;20108;-63
2021/04/03 12:32:40;;;;;;;7.10;2.47;;;12.50;79.80;;;;;;4960145;28;20522;-63
2021/04/03 12:35:08;;;;;;;7.97;2.13;;;14.10;78.30;;;;;;4965017;28;20039;-64
2021/04/03 12:37:35;;;;;;;7.75;2.45;;;14.60;75.30;;;;;;4962121;28;20042;-64
2021/04/03 12:40:01;;;;;;;;;;;14.60;73.00;;;;;;4964677;28;20043;-68
2021/04/03 12:42:30;;;;;;;5.07;1.88;;;15.30;71.80;;;;;;4961055;28;19930;-68
2021/04/03 12:44:57;;;;;;;4.13;1.98;;;15.60;70.80;;;;;;4960538;28;20039;-66
2021/04/03 12:47:24;;;;;;;;;;;14.80;71.20;;;;;;4962556;28;20506;-65
2021/04/03 12:49:51;;;;;;;2.47;1.27;;;14.20;70.30;;;;;;4954390;28;19974;-66
2021/04/03 12:52:18;;;;;;;4.10;1.20;;;13.70;70.80;;;;;;4953820;28;20153;-67
2021/04/03 12:54:45;;;;;;;4.00;1.30;;;14.90;67.30;;;;;;4971674;28;20046;-67
2021/04/03 12:57:11;;;;;;;2.47;1.38;;;15.00;64.30;;;;;;4969882;28;20047;-66
2021/04/03 12:59:38;;;;;;;4.63;1.80;;;14.90;64.80;;;;;;4972215;28;20399;-68
2021/04/03 13:02:05;;;;;;;5.05;1.75;;;15.20;65.80;;;;;;4969312;28;20076;-67
2021/04/03 13:04:32;;;;;;;5.10;1.67;;;15.70;65.00;;;;;;4971180;28;20070;-65
2021/04/03 13:06:59;;;;;;;5.43;1.65;;;16.30;61.60;;;;;;4980830;28;20474;-66
2021/04/03 13:09:26;;;;;;;;;;;16.30;62.50;;;;;;4961160;28;20042;-65
2021/04/03 13:11:52;;;;;;;5.00;2.15;;;15.70;64.90;;;;;;4962068;28;19963;-65
2021/04/03 13:14:19;;;;;;;;;;;14.60;67.10;;;;;;4963238;28;20042;-64
2021/04/03 13:16:45;;;;;;;3.88;1.30;;;15.00;64.90;;;;;;4962462;28;20436;-65
2021/04/03 13:19:12;;;;;;;1.80;1.38;;;14.30;64.20;;;;;;4961570;28;20043;-64
2021/04/03 13:21:39;;;;;;;4.72;1.98;;;13.90;64.80;;;;;;4961698;28;20042;-65
2021/04/03 13:24:07;;;;;;;5.63;1.67;;;15.20;65.30;;;;;;4947701;28;20043;-65
2021/04/03 13:26:33;;;;;;;4.00;1.65;;;14.50;64.40;;;;;;4972528;28;20141;-65
2021/04/03 13:29:00;;;;;;;4.00;1.90;;;14.90;65.10;;;;;;4967831;28;20039;-65
2021/04/03 13:31:27;;;;;;;3.83;2.00;;;15.30;65.40;;;;;;4961734;28;20435;-65
2021/04/03 13:33:54;;;;;;;4.78;2.25;;;15.00;66.00;;;;;;4957584;28;20161;-65
2021/04/03 13:36:21;;;;;;;4.88;2.08;;;15.60;65.90;;;;;;4957491;28;20491;-64
2021/04/03 13:38:48;;;;;;;9.52;2.40;;;16.70;62.60;;;;;;4958544;28;20047;-65
2021/04/03 13:41:15;;;;;;;4.47;1.77;;;16.30;60.70;;;;;;4965149;28;20453;-65
2021/04/03 13:43:41;;;;;;;3.05;1.88;;;15.70;62.60;;;;;;4959762;28;20043;-64
2021/04/03 13:46:08;;;;;;;;;;;16.60;64.10;;;;;;4960657;28;20130;-64
2021/04/03 13:48:34;;;;;;;4.35;1.70;;;16.70;63.40;;;;;;4962212;28;20016;-64
2021/04/03 13:51:01;;;;;;;6.13;1.85;;;15.70;62.40;;;;;;4961043;28;20070;-64
2021/04/03 13:53:27;;;;;;;5.93;1.95;;;14.20;66.00;;;;;;4948588;28;20134;-64
2021/04/03 13:55:55;;;;;;;3.92;1.58;;;13.70;66.80;;;;;;4962285;28;20050;-63
2021/04/03 13:58:23;;;;;;;2.42;1.75;;;13.30;65.10;;;;;;4955294;28;20061;-64
2021/04/03 14:00:50;;;;;;;3.08;1.40;;;13.50;65.20;;;;;;4957746;28;20038;-65
2021/04/03 14:03:17;;;;;;;4.43;1.80;;;13.30;67.20;;;;;;4958087;28;20042;-65
2021/04/03 14:05:44;;;;;;;5.18;2.00;;;13.50;68.60;;;;;;4960315;28;20039;-65
2021/04/03 14:08:11;;;;;;;6.07;1.80;;;14.90;66.60;;;;;;4956385;28;20102;-67
2021/04/03 14:10:39;;;;;;;6.40;2.00;;;16.00;63.00;;;;;;4956348;28;20494;-65
2021/04/03 14:13:07;;;;;;;4.55;1.73;;;15.30;60.70;;;;;;4961818;28;20091;-64
2021/04/03 14:15:33;;;;;;;3.00;1.67;;;14.80;61.60;;;;;;4960431;28;20406;-66
2021/04/03 14:18:00;;;;;;;5.95;1.90;;;15.30;60.30;;;;;;4959962;28;20066;-65
2021/04/03 14:20:27;;;;;;;7.75;2.03;;;15.70;60.90;;;;;;4958858;28;20410;-65
2021/04/03 14:22:54;;;;;;;2.35;1.30;;;15.40;62.80;;;;;;4944031;28;20586;-66
2021/04/03 14:25:21;;;;;;;4.13;1.90;;;14.20;63.10;;;;;;4962500;28;20569;-64
2021/04/03 14:27:48;;;;;;;3.33;1.67;;;13.80;65.20;;;;;;4967830;28;20053;-66
2021/04/03 14:30:16;;;;;;;;;;;14.40;64.20;;;;;;4962743;28;20057;-66
2021/04/03 14:32:43;;;;;;;2.95;1.77;;;14.00;63.80;;;;;;4964993;28;19930;-65
2021/04/03 14:35:10;;;;;;;4.07;1.52;;;14.30;61.80;;;;;;4961058;28;20046;-65
2021/04/03 14:37:37;;;;;;;3.67;2.00;;;13.80;65.30;;;;;;4964873;28;20047;-65
2021/04/03 14:40:05;;;;;;;9.35;2.13;;;14.20;63.80;;;;;;4958808;28;20125;-65
2021/04/03 14:42:31;;;;;;;7.25;1.88;;;14.00;64.90;;;;;;4960852;28;20043;-66
2021/04/03 14:44:58;;;;;;;5.65;1.92;;;14.00;65.60;;;;;;4959486;28;20085;-66
2021/04/03 14:47:25;;;;;;;6.28;1.95;;;14.30;65.10;;;;;;4961490;28;20039;-66
2021/04/03 14:49:52;;;;;;;6.10;2.15;;;14.40;63.40;;;;;;4963604;28;20047;-66
2021/04/03 14:52:19;;;;;;;4.28;2.25;;;14.70;65.70;;;;;;4967120;28;20415;-67
2021/04/03 14:54:46;;;;;;;4.43;2.05;;;14.40;63.50;;;;;;4967146;28;20053;-66
2021/04/03 14:57:12;;;;;;;;;;;14.90;62.40;;;;;;4964066;28;20183;-68
2021/04/03 14:59:39;;;;;;;2.63;1.73;;;14.00;63.90;;;;;;4966784;28;20013;-67
2021/04/03 15:02:06;;;;;;;5.07;2.33;;;13.60;65.60;;;;;;4965100;28;20055;-65
2021/04/03 15:04:34;;;;;;;5.55;1.98;;;13.10;65.00;;;;;;4965199;28;20036;-66
2021/04/03 15:07:00;;;;;;;6.75;2.50;;;13.60;66.00;;;;;;4970955;28;20085;-66
2021/04/03 15:09:27;;;;;;;3.83;2.22;;;13.40;64.70;;;;;;4957964;28;20067;-65
2021/04/03 15:11:53;;;;;;;5.20;2.15;;;13.60;64.00;;;;;;4963079;28;20035;-68
2021/04/03 15:14:20;;;;;;;4.88;2.17;;;13.10;65.00;;;;;;4958436;28;20046;-66
2021/04/03 15:16:47;;;;;;;9.75;2.55;;;13.90;64.50;;;;;;4961021;28;20078;-65
2021/04/03 15:19:14;;;;;;;3.03;1.75;;;13.90;62.70;;;;;;4964714;28;20050;-66
2021/04/03 15:21:42;;;;;;;;;;;14.10;62.90;;;;;;4956539;28;20043;-66
2021/04/03 15:24:09;;;;;;;;;;;14.00;63.30;;;;;;4964759;28;19926;-65
2021/04/03 15:26:36;;;;;;;6.55;2.72;;;13.90;63.60;;;;;;4961284;28;20491;-67
2021/04/03 15:29:02;;;;;;;5.03;2.00;;;14.10;63.90;;;;;;4971203;28;20047;-66
2021/04/03 15:31:29;;;;;;;;;;;14.20;63.20;;;;;;4967304;28;20062;-66
2021/04/03 15:33:55;;;;;;;4.97;2.13;;;14.20;63.70;;;;;;4960706;28;19923;-65
2021/04/03 15:36:22;;;;;;;6.43;3.67;;;13.50;63.70;;;;;;4942504;28;20149;-64
2021/04/03 15:38:49;;;;;;;5.38;2.17;;;13.60;62.80;;;;;;4960935;28;20712;-66
2021/04/03 15:41:16;;;;;;;7.45;2.33;;;13.60;64.90;;;;;;4957229;28;20035;-64
2021/04/03 15:43:42;;;;;;;4.05;1.92;;;13.20;63.20;;;;;;4970547;28;20043;-66
2021/04/03 15:46:09;;;;;;;4.95;2.05;;;13.00;63.20;;;;;;4970627;28;20109;-65
2021/04/03 15:48:36;;;;;;;8.38;2.47;;;12.60;64.10;;;;;;4962193;28;20046;-65
2021/04/03 15:51:03;;;;;;;6.63;1.95;;;12.30;65.10;;;;;;4973107;28;20034;-66
2021/04/03 15:53:29;;;;;;;;;;;12.30;64.90;;;;;;4971366;28;20055;-64
2021/04/03 15:55:56;;;;;;;3.95;2.20;;;12.30;65.10;;;;;;4972849;28;19929;-65
2021/04/03 15:58:23;;;;;;;4.82;1.90;;;12.10;64.70;;;;;;4969127;28;20136;-65
2021/04/03 16:00:50;;;;;;;3.42;1.85;;;12.30;66.20;;;;;;4972518;28;20054;-65
2021/04/03 16:03:17;;;;;;;7.47;2.03;;;12.60;65.80;;;;;;4970130;28;20042;-65
2021/04/03 16:05:45;;;;;;;4.57;1.75;;;12.40;65.30;;;;;;4973647;28;20125;-66
2021/04/03 16:08:12;;;;;;;6.72;2.78;;;12.40;65.80;;;;;;4970416;28;20109;-65
2021/04/03 16:10:38;;;;;;;;;;;12.50;66.20;;;;;;4973329;28;20071;-66
2021/04/03 16:13:06;;;;;;;6.05;2.55;;;12.30;64.90;;;;;;4966823;28;19926;-66
2021/04/03 16:15:32;;;;;;;5.65;2.35;;;12.40;64.30;;;;;;4943927;28;20136;-67
2021/04/03 16:18:00;;;;;;;4.35;2.47;;;12.30;65.90;;;;;;4963402;28;20046;-67
2021/04/03 16:20:27;;;;;;;5.50;2.17;;;12.40;66.10;;;;;;4967252;28;20098;-66
2021/04/03 16:22:54;;;;;;;4.20;1.70;;;12.30;66.40;;;;;;4961232;28;20047;-66
2021/04/03 16:25:21;;;;;;;6.75;2.70;;;12.20;65.80;;;;;;4967327;28;20391;-65
2021/04/03 16:27:48;;;;;;;7.80;4.13;;;12.10;67.20;;;;;;4963620;28;20043;-66
2021/04/03 16:30:16;;;;;;;12.93;2.50;;;12.30;67.10;;;;;;4944861;28;20089;-65
2021/04/03 16:32:43;;;;;;;7.00;2.22;;;12.20;66.90;;;;;;4965837;28;20042;-65
2021/04/03 16:35:10;;;;;;;6.72;2.72;;;12.10;67.50;;;;;;4963485;28;20043;-66
2021/04/03 16:37:37;;;;;;;7.30;3.10;;;12.20;66.30;;;;;;4954360;28;20086;-65
2021/04/03 16:40:05;;;;;;;11.45;2.30;;;12.30;65.90;;;;;;4969922;28;20057;-66
2021/04/03 16:42:32;;;;;;;4.35;2.40;;;12.00;67.50;;;;;;4972003;28;20145;-66
2021/04/03 16:44:58;;;;;;;9.75;3.25;;;12.10;67.00;;;;;;4952451;28;20073;-66
2021/04/03 16:47:26;;;;;;;7.95;2.17;;;12.40;67.60;;;;;;4972579;28;20113;-67
2021/04/03 16:49:53;;;;;;;4.47;2.03;;;12.30;67.50;;;;;;4971817;28;20050;-67
2021/04/03 16:52:19;;;;;;;6.75;3.35;;;12.10;68.20;;;;;;4970997;28;20050;-67
2021/04/03 16:54:46;;;;;;;;;;;11.80;69.30;;;;;;4972480;28;20065;-66
2021/04/03 16:57:12;;;;;;;;;;;11.60;69.20;;;;;;4971169;28;19930;-66
2021/04/03 16:59:39;;;;;;;;;;;11.50;69.70;;;;;;4975607;28;20445;-66
2021/04/03 17:02:05;;;;;;;;;;;11.40;69.80;;;;;;4953129;28;19957;-66
2021/04/03 17:04:32;;;;;;;;;;;11.50;71.00;;;;;;4967514;28;19926;-66
2021/04/03 17:06:59;;;;;;;;;;;11.30;70.80;;;;;;4960927;28;20370;-67
2021/04/03 17:09:26;;;;;;;;;;;11.30;71.20;;;;;;4961042;28;19933;-67
2021/04/03 17:11:52;;;;;;;;;;;11.30;71.90;;;;;;4961973;28;19989;-65
2021/04/03 17:14:19;;;;;;;;;;;11.30;72.40;;;;;;4963071;28;19990;-67
2021/04/03 17:16:46;;;;;;;;;;;11.20;72.60;;;;;;4961696;28;19933;-67
2021/04/03 17:19:13;;;;;;;;;;;11.10;72.50;;;;;;4963277;28;20077;-63
2021/04/03 17:21:40;;;;;;;;;;;10.90;72.00;;;;;;4961041;28;19922;-63
2021/04/03 17:24:07;;;;;;;;;;;10.80;72.50;;;;;;4962501;28;20402;-63
2021/04/03 17:26:33;;;;;;;;;;;10.80;73.50;;;;;;4969229;28;19926;-64
2021/04/03 17:28:59;;;;;;;;;;;10.80;74.50;;;;;;4969022;28;19965;-63
2021/04/03 17:31:25;;;;;;;;;;;10.80;75.00;;;;;;4963475;28;19961;-64
2021/04/03 17:33:52;;;;;;;;;;;10.80;74.40;;;;;;4945672;28;19926;-64
2021/04/03 17:36:18;;;;;;;;;;;10.70;74.70;;;;;;4963282;28;20021;-64
2021/04/03 17:38:46;;;;;;;;;;;10.70;75.10;;;;;;4963004;28;19926;-65
2021/04/03 17:41:12;;;;;;;;;;;10.50;75.80;;;;;;4967563;28;20315;-65
2021/04/03 17:43:38;;;;;;;;;;;10.50;76.20;;;;;;4962492;28;19938;-64
2021/04/03 17:46:06;;;;;;;;;;;10.50;76.50;;;;;;4962166;28;20001;-64
2021/04/03 17:48:32;;;;;;;;;;;10.40;77.10;;;;;;4965096;28;19932;-64
2021/04/03 17:50:59;;;;;;;;;;;10.40;77.00;;;;;;4962568;28;19978;-63